Time;durP1;ratioP1;P1;durP2;ratioP2;P2;SDS_P1;SDS_P2;PMS_P1;PMS_P2;Temp;Humidity;BMP_temperature;BMP_pressure;BME280_temperature;BME280_humidity;BME280_pressure;Samples;Min_cycle;Max_cycle;Signal;HPM_P1;HPM_P2
2022/12/19 00:01:18;;;;;;;31.40;16.00;;;;;;;-142.25;100.00;58004.16;4963165;28;20042;-65
2022/12/19 00:03:56;;;;;;;32.20;16.73;;;;;;;-142.25;100.00;58004.16;4961526;28;20043;-64
2022/12/19 00:06:23;;;;;;;39.40;16.03;;;;;;;-142.25;100.00;58004.16;4963896;28;20166;-64
2022/12/19 00:08:51;;;;;;;30.23;15.20;;;;;;;-142.25;100.00;58004.16;4962420;28;20074;-63
2022/12/19 00:11:19;;;;;;;28.97;16.37;;;;;;;-142.25;100.00;58004.16;4962418;28;20067;-65
2022/12/19 00:13:45;;;;;;;31.33;15.00;;;;;;;-142.25;100.00;58004.16;4982488;28;20454;-66
2022/12/19 00:16:14;;;;;;;33.83;16.17;;;;;;;-142.25;100.00;58004.16;4964825;28;20051;-65
2022/12/19 00:18:41;;;;;;;33.33;16.37;;;;;;;-142.25;100.00;58004.16;4963449;28;20457;-64
2022/12/19 00:21:09;;;;;;;31.57;15.27;;;;;;;-142.25;100.00;58004.16;4963128;28;20047;-63
2022/12/19 00:23:35;;;;;;;33.77;15.80;;;;;;;-142.25;100.00;58004.16;4962363;28;20610;-63
2022/12/19 00:26:09;;;;;;;35.13;17.87;;;;;;;-142.25;100.00;58004.16;4962369;28;20049;-66
2022/12/19 00:28:35;;;;;;;35.85;15.10;;;;;;;-142.25;100.00;58004.16;4966026;28;20034;-64
2022/12/19 00:31:02;;;;;;;44.73;19.27;;;;;;;-142.25;100.00;58004.16;4966246;28;20059;-64
2022/12/19 00:33:28;;;;;;;49.13;20.70;;;;;;;-142.25;100.00;58004.16;4963585;28;20051;-63
2022/12/19 00:36:06;;;;;;;37.10;18.17;;;;;;;-142.25;100.00;58004.16;4963815;28;20038;-64
2022/12/19 00:38:33;;;;;;;41.67;19.67;;;;;;;-142.25;100.00;58004.16;4965226;28;20045;-64
2022/12/19 00:41:07;;;;;;;41.77;21.03;;;;;;;-142.25;100.00;58004.16;4964014;28;20614;-64
2022/12/19 00:43:35;;;;;;;45.77;20.37;;;;;;;-142.25;100.00;58004.16;4963520;28;20138;-63
2022/12/19 00:46:06;;;;;;;39.33;18.27;;;;;;;-142.25;100.00;58004.16;4961905;28;20042;-64
2022/12/19 00:48:32;;;;;;;37.43;20.50;;;;;;;-142.25;100.00;58004.16;4968170;28;20401;-63
2022/12/19 00:51:09;;;;;;;41.67;18.37;;;;;;;-142.25;100.00;58004.16;4963995;28;20165;-63
2022/12/19 00:53:34;;;;;;;39.70;18.87;;;;;;;-142.25;100.00;58004.16;4961973;28;20042;-64
2022/12/19 00:56:04;;;;;;;44.50;18.20;;;;;;;-142.25;100.00;58004.16;4962103;28;20070;-64
2022/12/19 00:58:32;;;;;;;41.63;19.13;;;;;;;-142.25;100.00;58004.16;4959876;28;20067;-64
2022/12/19 01:00:57;;;;;;;43.30;19.87;;;;;;;-142.25;100.00;58004.16;4960461;28;20138;-63
2022/12/19 01:03:24;;;;;;;67.23;26.10;;;;;;;-142.25;100.00;58004.16;4964925;28;20430;-63
2022/12/19 01:05:51;;;;;;;80.20;30.90;;;;;;;-142.25;100.00;58004.16;4961821;28;20043;-63
2022/12/19 01:08:16;;;;;;;61.63;27.70;;;;;;;-142.25;100.00;58004.16;4962643;28;20392;-63
2022/12/19 01:10:47;;;;;;;61.33;24.53;;;;;;;-142.25;100.00;58004.16;4962448;28;20054;-66
2022/12/19 01:13:15;;;;;;;53.20;21.40;;;;;;;-142.25;100.00;58004.16;4961613;28;20050;-65
2022/12/19 01:15:41;;;;;;;51.07;22.90;;;;;;;-142.25;100.00;58004.16;4962746;28;20097;-64
2022/12/19 01:18:09;;;;;;;48.73;21.77;;;;;;;-142.25;100.00;58004.16;4951319;28;20385;-64
2022/12/19 01:20:44;;;;;;;38.47;19.93;;;;;;;-142.25;100.00;58004.16;4963566;28;20529;-62
2022/12/19 01:23:10;;;;;;;39.20;18.42;;;;;;;-142.25;100.00;58004.16;4962339;28;20470;-64
2022/12/19 01:25:37;;;;;;;34.67;17.33;;;;;;;-142.25;100.00;58004.16;4962511;28;20162;-62
2022/12/19 01:28:04;;;;;;;39.63;20.53;;;;;;;-142.25;100.00;58004.16;4959749;28;20077;-63
2022/12/19 01:30:31;;;;;;;37.67;17.53;;;;;;;-142.25;100.00;58004.16;4963945;28;20162;-64
2022/12/19 01:32:58;;;;;;;37.40;18.17;;;;;;;-142.25;100.00;58004.16;4977350;28;20096;-63
2022/12/19 01:35:26;;;;;;;32.37;14.67;;;;;;;-142.25;100.00;58004.16;4959650;28;20516;-62
2022/12/19 01:37:52;;;;;;;32.07;15.07;;;;;;;-142.25;100.00;58004.16;4959138;28;20038;-64
2022/12/19 01:40:20;;;;;;;29.63;14.40;;;;;;;-142.25;100.00;58004.16;4962084;28;20090;-64
2022/12/19 01:42:47;;;;;;;33.33;17.00;;;;;;;-142.25;100.00;58004.16;4959544;28;20070;-64
2022/12/19 01:45:15;;;;;;;44.00;18.53;;;;;;;-142.25;100.00;58004.16;4960629;28;20130;-63
2022/12/19 01:47:46;;;;;;;38.67;17.83;;;;;;;-142.25;100.00;58004.16;4962411;28;20046;-65
2022/12/19 01:50:18;;;;;;;32.33;16.50;;;;;;;-142.25;100.00;58004.16;4965755;28;20043;-63
2022/12/19 01:52:44;;;;;;;42.50;18.97;;;;;;;-142.25;100.00;58004.16;4961298;28;20548;-63
2022/12/19 01:55:11;;;;;;;44.00;20.00;;;;;;;-142.25;100.00;58004.16;4962675;28;20089;-64
2022/12/19 01:57:37;;;;;;;45.23;20.77;;;;;;;-142.25;100.00;58004.16;4962717;28;20520;-63
2022/12/19 02:00:08;;;;;;;42.83;20.47;;;;;;;-142.25;100.00;58004.16;4959593;28;20039;-64
2022/12/19 02:03:27;;;;;;;39.30;17.63;;;;;;;-142.25;100.00;58004.16;4963938;28;20054;-63
2022/12/19 02:05:54;;;;;;;38.43;17.90;;;;;;;-142.25;100.00;58004.16;4959676;28;20137;-65
2022/12/19 02:08:21;;;;;;;35.93;17.63;;;;;;;-142.25;100.00;58004.16;4979354;28;20042;-63
2022/12/19 02:10:47;;;;;;;35.93;17.57;;;;;;;-142.25;100.00;58004.16;4936930;28;20690;-64
2022/12/19 02:13:14;;;;;;;40.93;19.07;;;;;;;-142.25;100.00;58004.16;4963879;28;20130;-63
2022/12/19 02:15:57;;;;;;;35.30;17.93;;;;;;;-142.25;100.00;58004.16;4967565;28;20839;-63
2022/12/19 02:19:01;;;;;;;39.40;17.77;;;;;;;-142.25;100.00;58004.16;4961553;28;20047;-64
2022/12/19 02:21:31;;;;;;;32.97;16.53;;;;;;;-142.25;100.00;58004.16;4931010;28;20155;-64
2022/12/19 02:24:15;;;;;;;35.20;17.50;;;;;;;-142.25;100.00;58004.16;4965324;28;20046;-65
2022/12/19 02:27:04;;;;;;;34.37;16.40;;;;;;;-142.25;100.00;58004.16;4975075;28;20051;-64
2022/12/19 02:30:04;;;;;;;31.93;15.93;;;;;;;-142.25;100.00;58004.16;4965285;28;20081;-63
2022/12/19 02:32:47;;;;;;;33.33;15.23;;;;;;;-142.25;100.00;58004.16;4961648;28;20045;-63
2022/12/19 02:35:23;;;;;;;31.40;15.30;;;;;;;-142.25;100.00;58004.16;4960132;28;20149;-65
2022/12/19 02:38:09;;;;;;;;;;;;;;;-142.25;100.00;58004.16;4968077;28;20100;-64
2022/12/19 02:40:43;;;;;;;31.77;16.02;;;;;;;-142.25;100.00;58004.16;4961843;28;19929;-64
2022/12/19 02:43:14;;;;;;;33.30;15.50;;;;;;;-142.25;100.00;58004.16;4961277;28;20138;-64
2022/12/19 02:45:41;;;;;;;29.03;14.17;;;;;;;-142.25;100.00;58004.16;4936575;28;20054;-64
2022/12/19 02:48:08;;;;;;;30.90;15.30;;;;;;;-142.25;100.00;58004.16;4966371;28;20082;-63
2022/12/19 02:50:40;;;;;;;28.40;15.60;;;;;;;-142.25;100.00;58004.16;4961732;28;20076;-62
2022/12/19 02:53:09;;;;;;;23.07;12.87;;;;;;;-142.25;100.00;58004.16;4965811;28;20512;-63
2022/12/19 02:55:45;;;;;;;30.90;14.30;;;;;;;-142.25;100.00;58004.16;4963543;28;20078;-63
2022/12/19 02:58:31;;;;;;;25.03;12.43;;;;;;;-142.25;100.00;58004.16;4961320;28;20043;-64
2022/12/19 03:01:29;;;;;;;23.93;11.10;;;;;;;-142.25;100.00;58004.16;4966184;28;20461;-63
2022/12/19 03:04:13;;;;;;;27.13;11.73;;;;;;;-142.25;100.00;58004.16;4969060;28;20137;-63
2022/12/19 03:06:47;;;;;;;21.37;10.97;;;;;;;-142.25;100.00;58004.16;4983588;28;20053;-63
2022/12/19 03:09:19;;;;;;;20.40;10.07;;;;;;;-142.25;100.00;58004.16;4981009;28;20054;-63
2022/12/19 03:11:50;;;;;;;15.53;9.83;;;;;;;-142.25;100.00;58004.16;4961093;28;20075;-63
2022/12/19 03:14:19;;;;;;;19.43;10.03;;;;;;;-142.25;100.00;58004.16;4965750;28;20391;-64
2022/12/19 03:16:45;;;;;;;20.83;9.40;;;;;;;-142.25;100.00;58004.16;4981180;28;20046;-63
2022/12/19 03:19:13;;;;;;;17.33;9.63;;;;;;;-142.25;100.00;58004.16;4967107;28;20054;-63
2022/12/19 03:21:42;;;;;;;22.53;10.47;;;;;;;-142.25;100.00;58004.16;4961092;28;20812;-62
2022/12/19 03:24:10;;;;;;;14.70;8.83;;;;;;;-142.25;100.00;58004.16;4962595;28;20510;-64
2022/12/19 03:27:10;;;;;;;18.40;9.63;;;;;;;-142.25;100.00;58004.16;4968727;28;20062;-63
2022/12/19 03:29:43;;;;;;;19.70;11.00;;;;;;;-142.25;100.00;58004.16;4970608;28;20045;-63
2022/12/19 03:32:12;;;;;;;17.17;8.80;;;;;;;-142.25;100.00;58004.16;4964467;28;20074;-64
2022/12/19 03:34:43;;;;;;;15.37;8.60;;;;;;;-142.25;100.00;58004.16;4960738;28;20066;-66
2022/12/19 03:37:14;;;;;;;18.23;8.87;;;;;;;-142.25;100.00;58004.16;4963797;28;20050;-64
2022/12/19 03:39:42;;;;;;;17.83;8.53;;;;;;;-142.25;100.00;58004.16;4966375;28;20054;-64
2022/12/19 03:45:00;;;;;;;13.60;7.97;;;;;;;-142.25;100.00;58004.16;4965971;28;20477;-63
2022/12/19 03:47:33;;;;;;;17.37;8.43;;;;;;;-142.25;100.00;58004.16;4966190;28;20232;-63
2022/12/19 03:49:59;;;;;;;16.10;7.33;;;;;;;-142.25;100.00;58004.16;4969302;28;20387;-64
2022/12/19 03:52:28;;;;;;;17.93;7.90;;;;;;;-142.25;100.00;58004.16;4960367;28;20057;-64
2022/12/19 03:55:02;;;;;;;14.17;8.23;;;;;;;-142.25;100.00;58004.16;4960820;28;20047;-63
2022/12/19 03:57:34;;;;;;;16.13;7.77;;;;;;;-142.25;100.00;58004.16;4960567;28;20713;-63
2022/12/19 04:00:07;;;;;;;12.13;6.50;;;;;;;-142.25;100.00;58004.16;4960361;28;20046;-63
2022/12/19 04:02:43;;;;;;;11.47;6.50;;;;;;;-142.25;100.00;58004.16;4962670;28;20050;-64
2022/12/19 04:05:13;;;;;;;16.77;7.37;;;;;;;-142.25;100.00;58004.16;4961956;28;20062;-63
2022/12/19 04:07:40;;;;;;;16.10;7.93;;;;;;;-142.25;100.00;58004.16;4965251;28;20039;-63
2022/12/19 04:10:10;;;;;;;10.37;6.13;;;;;;;-142.25;100.00;58004.16;4973688;28;20069;-63
2022/12/19 04:12:40;;;;;;;12.70;6.83;;;;;;;-142.25;100.00;58004.16;4968527;28;20417;-64
2022/12/19 04:15:07;;;;;;;13.60;6.90;;;;;;;-142.25;100.00;58004.16;4968194;28;20053;-62
2022/12/19 04:17:41;;;;;;;11.73;6.67;;;;;;;-142.25;100.00;58004.16;4969971;28;20070;-64
2022/12/19 04:20:11;;;;;;;13.77;6.75;;;;;;;-142.25;100.00;58004.16;4970341;28;20057;-66
2022/12/19 04:22:51;;;;;;;11.30;7.33;;;;;;;-142.25;100.00;58004.16;4967065;28;20050;-63
2022/12/19 04:25:23;;;;;;;15.60;8.40;;;;;;;-142.25;100.00;58004.16;4973867;28;20035;-63
2022/12/19 04:27:58;;;;;;;13.90;7.57;;;;;;;-142.25;100.00;58004.16;4977442;28;20073;-66
2022/12/19 04:30:24;;;;;;;12.52;6.20;;;;;;;-142.25;100.00;58004.16;4963691;28;20039;-63
2022/12/19 04:32:50;;;;;;;12.57;8.00;;;;;;;-142.25;100.00;58004.16;4962299;28;20486;-62
2022/12/19 04:35:16;;;;;;;14.67;7.80;;;;;;;-142.25;100.00;58004.16;4965233;28;20051;-63
2022/12/19 04:37:42;;;;;;;15.03;8.27;;;;;;;-142.25;100.00;58004.16;4966442;28;20054;-63
2022/12/19 04:40:09;;;;;;;14.37;7.10;;;;;;;-142.25;100.00;58004.16;4963780;28;20417;-63
2022/12/19 04:42:35;;;;;;;12.20;7.30;;;;;;;-142.25;100.00;58004.16;4978634;28;20634;-63
2022/12/19 04:45:00;;;;;;;16.47;8.80;;;;;;;-142.25;100.00;58004.16;4961481;28;20768;-63
2022/12/19 04:47:26;;;;;;;15.43;7.87;;;;;;;-142.25;100.00;58004.16;4965531;28;20109;-64
2022/12/19 04:49:52;;;;;;;14.77;8.10;;;;;;;-142.25;100.00;58004.16;4964098;28;20389;-63
2022/12/19 04:52:17;;;;;;;16.17;8.90;;;;;;;-142.25;100.00;58004.16;4965805;28;20077;-63
2022/12/19 04:54:43;;;;;;;18.70;9.83;;;;;;;-142.25;100.00;58004.16;4965602;28;20105;-63
2022/12/19 04:57:09;;;;;;;18.63;9.97;;;;;;;-142.25;100.00;58004.16;4965262;28;20039;-64
2022/12/19 04:59:35;;;;;;;21.07;11.50;;;;;;;-142.25;100.00;58004.16;4963977;28;20042;-63
2022/12/19 05:02:00;;;;;;;21.13;11.30;;;;;;;-142.25;100.00;58004.16;4963957;28;20062;-64
2022/12/19 05:04:26;;;;;;;17.63;10.23;;;;;;;-142.25;100.00;58004.16;4962100;28;20051;-67
2022/12/19 05:06:52;;;;;;;18.13;10.20;;;;;;;-142.25;100.00;58004.16;4963988;28;20045;-65
2022/12/19 05:09:17;;;;;;;26.40;13.00;;;;;;;-142.25;100.00;58004.16;4961029;28;20050;-65
2022/12/19 05:11:43;;;;;;;22.27;12.70;;;;;;;-142.25;100.00;58004.16;4964347;28;20455;-64
2022/12/19 05:14:09;;;;;;;26.67;14.23;;;;;;;-142.25;100.00;58004.16;4964171;28;20093;-64
2022/12/19 05:16:34;;;;;;;27.20;14.67;;;;;;;-142.25;100.00;58004.16;4962160;28;20043;-63
2022/12/19 05:19:00;;;;;;;28.00;13.40;;;;;;;-142.25;100.00;58004.16;4966528;28;20042;-64
2022/12/19 05:21:26;;;;;;;28.63;14.87;;;;;;;-142.25;100.00;58004.16;4971426;28;20505;-64
2022/12/19 05:23:52;;;;;;;31.70;15.73;;;;;;;-142.25;100.00;58004.16;4967596;28;20054;-64
2022/12/19 05:26:18;;;;;;;26.80;15.33;;;;;;;-142.25;100.00;58004.16;4963730;28;20440;-63
2022/12/19 05:28:44;;;;;;;26.07;14.70;;;;;;;-142.25;100.00;58004.16;4963646;28;20051;-65
2022/12/19 05:31:16;;;;;;;28.33;14.93;;;;;;;-142.25;100.00;58004.16;4965001;28;20051;-64
2022/12/19 05:33:42;;;;;;;32.93;16.10;;;;;;;-142.25;100.00;58004.16;4960591;28;20145;-63
2022/12/19 05:36:08;;;;;;;33.97;16.97;;;;;;;-142.25;100.00;58004.16;4961859;28;20058;-65
2022/12/19 05:38:34;;;;;;;32.10;16.53;;;;;;;-142.25;100.00;58004.16;4963036;28;20050;-65
2022/12/19 05:41:06;;;;;;;38.30;16.80;;;;;;;-142.25;100.00;58004.16;4963176;28;20090;-64
2022/12/19 05:43:32;;;;;;;29.07;16.07;;;;;;;-142.25;100.00;58004.16;4964703;28;20071;-64
2022/12/19 05:45:58;;;;;;;35.27;15.83;;;;;;;-142.25;100.00;58004.16;4963095;28;20047;-62
2022/12/19 05:48:24;;;;;;;34.63;16.03;;;;;;;-142.25;100.00;58004.16;4964516;28;20046;-63
2022/12/19 05:50:49;;;;;;;34.50;17.53;;;;;;;-142.25;100.00;58004.16;4964903;28;20035;-62
2022/12/19 05:53:18;;;;;;;33.83;16.67;;;;;;;-142.25;100.00;58004.16;4967095;28;20396;-63
2022/12/19 05:55:44;;;;;;;31.90;16.03;;;;;;;-142.25;100.00;58004.16;4961986;28;20105;-64
2022/12/19 05:58:11;;;;;;;38.00;16.93;;;;;;;-142.25;100.00;58004.16;4964814;28;20180;-63
2022/12/19 06:00:37;;;;;;;33.93;16.63;;;;;;;-142.25;100.00;58004.16;4961159;28;20134;-64
2022/12/19 06:03:02;;;;;;;34.97;17.00;;;;;;;-142.25;100.00;58004.16;4962714;28;20047;-64
2022/12/19 06:05:28;;;;;;;36.13;18.13;;;;;;;-142.25;100.00;58004.16;4961057;28;20062;-63
2022/12/19 06:07:54;;;;;;;34.47;18.77;;;;;;;-142.25;100.00;58004.16;4960231;28;20047;-65
2022/12/19 06:10:19;;;;;;;38.70;17.73;;;;;;;-142.25;100.00;58004.16;4960837;28;20043;-62
2022/12/19 06:12:45;;;;;;;39.97;18.37;;;;;;;-142.25;100.00;58004.16;4962359;28;20576;-73
2022/12/19 06:15:10;;;;;;;39.07;18.27;;;;;;;-142.25;100.00;58004.16;4961524;28;20055;-70
2022/12/19 06:17:36;;;;;;;37.93;18.33;;;;;;;-142.25;100.00;58004.16;4961396;28;20053;-72
2022/12/19 06:20:02;;;;;;;37.77;18.60;;;;;;;-142.25;100.00;58004.16;4962958;28;20061;-71
2022/12/19 06:22:28;;;;;;;43.13;19.33;;;;;;;-142.25;100.00;58004.16;4963512;28;20058;-72
2022/12/19 06:24:53;;;;;;;42.40;19.23;;;;;;;-142.25;100.00;58004.16;4967264;28;20050;-71
2022/12/19 06:27:19;;;;;;;40.17;19.80;;;;;;;-142.25;100.00;58004.16;4965499;28;20097;-72
2022/12/19 06:29:45;;;;;;;48.43;21.17;;;;;;;-142.25;100.00;58004.16;4966828;28;20088;-72
2022/12/19 06:32:10;;;;;;;41.03;18.83;;;;;;;-142.25;100.00;58004.16;4965910;28;20047;-73
2022/12/19 06:34:36;;;;;;;43.03;19.23;;;;;;;-142.25;100.00;58004.16;4965457;28;20138;-70
2022/12/19 06:37:01;;;;;;;40.57;19.73;;;;;;;-142.25;100.00;58004.16;4970395;28;20050;-72
2022/12/19 06:39:27;;;;;;;45.93;23.93;;;;;;;-142.25;100.00;58004.16;4962750;28;20047;-71
2022/12/19 06:44:37;;;;;;;43.73;21.50;;;;;;;-142.25;100.00;58004.16;4968105;28;20050;-71
2022/12/19 06:47:02;;;;;;;38.00;19.20;;;;;;;-142.25;100.00;58004.16;4970077;28;20513;-71
2022/12/19 06:49:28;;;;;;;41.40;21.43;;;;;;;-142.25;100.00;58004.16;4968887;28;20553;-69
2022/12/19 06:51:53;;;;;;;44.73;20.77;;;;;;;-142.25;100.00;58004.16;4967744;28;20047;-69
2022/12/19 06:54:19;;;;;;;42.83;19.23;;;;;;;-142.25;100.00;58004.16;4967166;28;20051;-71
2022/12/19 06:56:45;;;;;;;44.27;19.47;;;;;;;-142.25;100.00;58004.16;4966528;28;20046;-71
2022/12/19 06:59:12;;;;;;;44.67;20.40;;;;;;;-142.25;100.00;58004.16;4967009;28;20046;-69
2022/12/19 07:01:53;;;;;;;49.57;21.97;;;;;;;-142.25;100.00;58004.16;4982980;28;20043;-71
2022/12/19 07:04:40;;;;;;;44.60;19.20;;;;;;;-142.25;100.00;58004.16;4964810;28;20050;-71
2022/12/19 07:07:07;;;;;;;48.73;19.63;;;;;;;-142.25;100.00;58004.16;4967670;28;20096;-70
2022/12/19 07:09:33;;;;;;;51.17;20.80;;;;;;;-142.25;100.00;58004.16;4972027;28;20618;-69
2022/12/19 07:12:00;;;;;;;46.53;21.67;;;;;;;-142.25;100.00;58004.16;4964586;28;20094;-69
2022/12/19 07:14:25;;;;;;;46.87;20.27;;;;;;;-142.25;100.00;58004.16;4966042;28;20030;-70
2022/12/19 07:16:52;;;;;;;45.17;20.33;;;;;;;-142.25;100.00;58004.16;4963785;28;20039;-70
2022/12/19 07:19:20;;;;;;;43.87;19.83;;;;;;;-142.25;100.00;58004.16;4971165;28;20039;-69
2022/12/19 07:21:46;;;;;;;43.07;19.33;;;;;;;-142.25;100.00;58004.16;4964012;28;20167;-69
2022/12/19 07:24:13;;;;;;;47.40;20.57;;;;;;;-142.25;100.00;58004.16;4962341;28;20368;-67
2022/12/19 07:26:41;;;;;;;41.63;19.13;;;;;;;-142.25;100.00;58004.16;4962380;28;20167;-68
2022/12/19 07:29:08;;;;;;;46.70;20.40;;;;;;;-142.25;100.00;58004.16;4963601;28;20035;-68
2022/12/19 07:31:34;;;;;;;44.60;19.03;;;;;;;-142.25;100.00;58004.16;4962133;28;20363;-68
2022/12/19 07:34:00;;;;;;;43.47;17.90;;;;;;;-142.25;100.00;58004.16;4963109;28;20046;-69
2022/12/19 07:36:25;;;;;;;42.33;19.80;;;;;;;-142.25;100.00;58004.16;4962723;28;20042;-68
2022/12/19 07:38:51;;;;;;;44.77;23.07;;;;;;;-142.25;100.00;58004.16;4964006;28;20026;-68
2022/12/19 07:41:16;;;;;;;51.23;21.93;;;;;;;-142.25;100.00;58004.16;4968107;28;20444;-68
2022/12/19 07:43:42;;;;;;;47.63;22.03;;;;;;;-142.25;100.00;58004.16;4963811;28;20133;-68
2022/12/19 07:46:08;;;;;;;48.73;22.07;;;;;;;-142.25;100.00;58004.16;4963188;28;20078;-68
2022/12/19 07:48:33;;;;;;;52.60;19.73;;;;;;;-142.25;100.00;58004.16;4963674;28;20031;-69
2022/12/19 07:50:59;;;;;;;50.03;24.57;;;;;;;-142.25;100.00;58004.16;4963276;28;20057;-67
2022/12/19 07:53:29;;;;;;;43.67;19.90;;;;;;;-142.25;100.00;58004.16;4962811;28;20536;-67
2022/12/19 07:55:55;;;;;;;53.07;24.10;;;;;;;-142.25;100.00;58004.16;4960291;28;20046;-68
2022/12/19 07:58:21;;;;;;;42.97;19.97;;;;;;;-142.25;100.00;58004.16;4966829;28;20043;-68
2022/12/19 08:00:59;;;;;;;47.03;20.77;;;;;;;-142.25;100.00;58004.16;4962793;28;20046;-68
2022/12/19 08:03:25;;;;;;;37.97;18.60;;;;;;;-142.25;100.00;58004.16;4963907;28;20035;-68
2022/12/19 08:05:51;;;;;;;40.97;19.83;;;;;;;-142.25;100.00;58004.16;4962666;28;20123;-70
2022/12/19 08:08:17;;;;;;;42.77;18.43;;;;;;;-142.25;100.00;58004.16;4964981;28;20078;-68
2022/12/19 08:10:42;;;;;;;41.87;19.13;;;;;;;-142.25;100.00;58004.16;4962444;28;20579;-69
2022/12/19 08:13:08;;;;;;;43.03;18.93;;;;;;;-142.25;100.00;58004.16;4961688;28;20503;-70
2022/12/19 08:15:34;;;;;;;35.70;17.43;;;;;;;-142.25;100.00;58004.16;4964771;28;20039;-69
2022/12/19 08:18:00;;;;;;;47.17;18.97;;;;;;;-142.25;100.00;58004.16;4965244;28;20035;-69
2022/12/19 08:20:26;;;;;;;43.10;19.00;;;;;;;-142.25;100.00;58004.16;4965002;28;20034;-68
2022/12/19 08:22:51;;;;;;;43.07;19.10;;;;;;;-142.25;100.00;58004.16;4963630;28;20061;-70
2022/12/19 08:25:17;;;;;;;43.87;19.63;;;;;;;-142.25;100.00;58004.16;4966830;28;20050;-70
2022/12/19 08:27:42;;;;;;;44.73;20.80;;;;;;;-142.25;100.00;58004.16;4965076;28;20382;-69
2022/12/19 08:30:09;;;;;;;86.70;32.13;;;;;;;-142.25;100.00;58004.16;4967449;28;20046;-69
2022/12/19 08:32:35;;;;;;;79.37;32.40;;;;;;;-142.25;100.00;58004.16;4970527;28;20058;-69
2022/12/19 08:35:00;;;;;;;74.13;32.33;;;;;;;-142.25;100.00;58004.16;4961920;28;20030;-69
2022/12/19 08:37:26;;;;;;;37.17;17.37;;;;;;;-142.25;100.00;58004.16;4965588;28;20077;-69
2022/12/19 08:39:51;;;;;;;35.33;17.80;;;;;;;-142.25;100.00;58004.16;4968318;28;20069;-68
2022/12/19 08:42:17;;;;;;;31.23;17.00;;;;;;;-142.25;100.00;58004.16;4969915;28;20051;-68
2022/12/19 08:44:43;;;;;;;38.37;18.83;;;;;;;-142.25;100.00;58004.16;4968643;28;20062;-67
2022/12/19 08:47:08;;;;;;;35.80;17.63;;;;;;;-142.25;100.00;58004.16;4963905;28;20043;-68
2022/12/19 08:49:34;;;;;;;43.13;19.07;;;;;;;-142.25;100.00;58004.16;4963500;28;20202;-67
2022/12/19 08:52:00;;;;;;;35.13;16.90;;;;;;;-142.25;100.00;58004.16;4962375;28;20096;-67
2022/12/19 08:54:26;;;;;;;34.43;16.50;;;;;;;-142.25;100.00;58004.16;4963618;28;20050;-69
2022/12/19 08:56:51;;;;;;;34.50;15.70;;;;;;;-142.25;100.00;58004.16;4967786;28;20058;-69
2022/12/19 08:59:17;;;;;;;30.70;15.83;;;;;;;-142.25;100.00;58004.16;4964689;28;20441;-69
2022/12/19 09:01:43;;;;;;;33.43;16.83;;;;;;;-142.25;100.00;58004.16;4966321;28;20042;-70
2022/12/19 09:04:09;;;;;;;35.43;15.47;;;;;;;-142.25;100.00;58004.16;4967748;28;20035;-68
2022/12/19 09:06:35;;;;;;;29.23;13.97;;;;;;;-142.25;100.00;58004.16;4966133;28;20051;-69
2022/12/19 09:09:03;;;;;;;35.13;16.07;;;;;;;-142.25;100.00;58004.16;4962182;28;20070;-68
2022/12/19 09:11:29;;;;;;;27.37;15.70;;;;;;;-142.25;100.00;58004.16;4949346;28;20124;-71
2022/12/19 09:13:56;;;;;;;31.43;15.57;;;;;;;-142.25;100.00;58004.16;4967726;28;20046;-73
2022/12/19 09:16:24;;;;;;;37.20;16.63;;;;;;;-142.25;100.00;58004.16;4961085;28;20062;-73
2022/12/19 09:18:55;;;;;;;30.93;14.50;;;;;;;-142.25;100.00;58004.16;4963779;28;20061;-71
2022/12/19 09:21:23;;;;;;;31.97;16.13;;;;;;;-142.25;100.00;58004.16;4961767;28;20055;-72
2022/12/19 09:23:52;;;;;;;32.17;16.20;;;;;;;-142.25;100.00;58004.16;4964503;28;20035;-71
2022/12/19 09:26:19;;;;;;;29.83;14.53;;;;;;;-142.25;100.00;58004.16;4964765;28;20038;-73
2022/12/19 09:28:46;;;;;;;32.57;14.77;;;;;;;-142.25;100.00;58004.16;4964588;28;20352;-72
2022/12/19 09:31:16;;;;;;;28.77;13.87;;;;;;;-142.25;100.00;58004.16;4962050;28;20049;-72
2022/12/19 09:33:42;;;;;;;30.67;16.10;;;;;;;-142.25;100.00;58004.16;4961285;28;20771;-73
2022/12/19 09:36:12;;;;;;;31.07;15.93;;;;;;;-142.25;100.00;58004.16;4964116;28;20043;-74
2022/12/19 09:38:38;;;;;;;29.30;15.70;;;;;;;-142.25;100.00;58004.16;4963095;28;20039;-68
2022/12/19 09:41:12;;;;;;;32.07;16.37;;;;;;;-142.25;100.00;58004.16;4964714;28;20061;-68
2022/12/19 09:43:53;;;;;;;30.08;13.75;;;;;;;-142.25;100.00;58004.16;4970086;28;20241;-70
2022/12/19 09:46:26;;;;;;;28.33;14.90;;;;;;;-142.25;100.00;58004.16;4958467;28;20061;-72
2022/12/19 09:48:55;;;;;;;33.90;15.93;;;;;;;-142.25;100.00;58004.16;4960264;28;20045;-69
2022/12/19 09:51:45;;;;;;;32.43;16.13;;;;;;;-142.25;100.00;58004.16;4963363;28;20561;-70
2022/12/19 09:54:19;;;;;;;27.10;14.63;;;;;;;-142.25;100.00;58004.16;4962699;28;20054;-70
2022/12/19 09:56:47;;;;;;;31.50;16.40;;;;;;;-142.25;100.00;58004.16;4959201;28;20042;-69
2022/12/19 09:59:26;;;;;;;30.30;14.17;;;;;;;-142.25;100.00;58004.16;4963027;28;20047;-68
2022/12/19 10:02:22;;;;;;;30.17;15.17;;;;;;;-142.25;100.00;58004.16;4969613;28;20050;-71
2022/12/19 10:04:52;;;;;;;32.85;15.18;;;;;;;-142.25;100.00;58004.16;4962781;28;20050;-68
2022/12/19 10:07:19;;;;;;;27.67;14.17;;;;;;;-142.25;100.00;58004.16;4962649;28;20074;-68
2022/12/19 10:09:45;;;;;;;32.00;15.83;;;;;;;-142.25;100.00;58004.16;4967478;28;20561;-69
2022/12/19 10:12:41;;;;;;;32.10;16.07;;;;;;;-142.25;100.00;58004.16;4963908;28;20521;-67
2022/12/19 10:15:18;;;;;;;34.25;16.88;;;;;;;-142.25;100.00;58004.16;4965239;28;20090;-69
2022/12/19 10:18:05;;;;;;;33.83;15.70;;;;;;;-142.25;100.00;58004.16;4963604;28;20043;-67
2022/12/19 10:20:39;;;;;;;31.80;15.03;;;;;;;-142.25;100.00;58004.16;4964753;28;20058;-68
2022/12/19 10:23:11;;;;;;;32.80;14.90;;;;;;;-142.25;100.00;58004.16;4963461;28;20094;-67
2022/12/19 10:25:57;;;;;;;30.07;15.60;;;;;;;-142.25;100.00;58004.16;4964391;28;20052;-69
2022/12/19 10:28:44;;;;;;;33.23;15.17;;;;;;;-142.25;100.00;58004.16;4958491;28;20051;-66
2022/12/19 10:31:15;;;;;;;37.33;17.10;;;;;;;-142.25;100.00;58004.16;4964523;28;20116;-67
2022/12/19 10:34:05;;;;;;;33.40;15.67;;;;;;;-142.25;100.00;58004.16;4963117;28;20488;-69
2022/12/19 10:36:41;;;;;;;34.33;14.87;;;;;;;-142.25;100.00;58004.16;4962154;28;20508;-60
2022/12/19 10:39:32;;;;;;;34.40;15.30;;;;;;;-142.25;100.00;58004.16;4961383;28;20473;-75
2022/12/19 10:42:10;;;;;;;32.83;16.73;;;;;;;-142.25;100.00;58004.16;4959112;28;20073;-69
2022/12/19 10:44:39;;;;;;;28.30;14.13;;;;;;;-142.25;100.00;58004.16;4959791;28;20540;-67
2022/12/19 10:47:14;;;;;;;28.23;14.80;;;;;;;-142.25;100.00;58004.16;4949558;28;20047;-63
2022/12/19 10:49:39;;;;;;;34.65;15.50;;;;;;;-142.25;100.00;58004.16;4961669;28;20125;-65
2022/12/19 10:52:07;;;;;;;34.40;15.73;;;;;;;-142.25;100.00;58004.16;4964962;28;20049;-65
2022/12/19 10:54:38;;;;;;;31.33;17.57;;;;;;;-142.25;100.00;58004.16;4963218;28;20524;-70
2022/12/19 10:57:24;;;;;;;32.13;16.07;;;;;;;-142.25;100.00;58004.16;4962739;28;20409;-68
2022/12/19 11:00:14;;;;;;;28.80;14.80;;;;;;;-142.25;100.00;58004.16;4975863;28;20122;-66
2022/12/19 11:02:42;;;;;;;31.77;14.90;;;;;;;-142.25;100.00;58004.16;4958106;28;20081;-66
2022/12/19 11:05:37;;;;;;;30.53;14.47;;;;;;;-142.25;100.00;58004.16;4961702;28;20043;-67
2022/12/19 11:08:05;;;;;;;30.60;15.00;;;;;;;-142.25;100.00;58004.16;4961216;28;20054;-67
2022/12/19 11:10:39;;;;;;;32.27;15.17;;;;;;;-142.25;100.00;58004.16;4962139;28;20088;-68
2022/12/19 11:13:20;;;;;;;33.87;16.20;;;;;;;-142.25;100.00;58004.16;4961483;28;20406;-69